Time;durP1;ratioP1;P1;durP2;ratioP2;P2;SDS_P1;SDS_P2;PMS_P1;PMS_P2;Temp;Humidity;BMP_temperature;BMP_pressure;BME280_temperature;BME280_humidity;BME280_pressure;Samples;Min_cycle;Max_cycle;Signal;HPM_P1;HPM_P2
2022/08/19 00:01:31;;;;;;;8.35;6.13;;;15.10;99.90;;;;;;4990902;28;20414;-84
2022/08/19 00:03:59;;;;;;;5.85;4.70;;;15.00;99.90;;;;;;5028928;28;20417;-84
2022/08/19 00:06:26;;;;;;;4.47;3.85;;;15.00;99.90;;;;;;4987724;28;20745;-84
2022/08/19 00:08:52;;;;;;;5.32;4.65;;;14.90;99.90;;;;;;5027559;28;20413;-83
2022/08/19 00:11:19;;;;;;;7.65;6.65;;;14.90;99.90;;;;;;5007120;28;20046;-84
2022/08/19 00:13:46;;;;;;;8.63;6.88;;;14.90;99.90;;;;;;4987707;28;20444;-84
2022/08/19 00:16:11;;;;;;;8.43;7.53;;;15.00;1.00;;;;;;4992379;28;20043;-83
2022/08/19 00:18:37;;;;;;;8.27;6.97;;;14.90;1.00;;;;;;5024952;28;20050;-84
2022/08/19 00:21:07;;;;;;;7.93;6.40;;;14.90;99.90;;;;;;5001161;28;20041;-84
2022/08/19 00:23:34;;;;;;;7.97;6.65;;;14.80;99.90;;;;;;4987027;28;20080;-84
2022/08/19 00:26:00;;;;;;;6.70;5.72;;;14.80;99.90;;;;;;5022656;28;20112;-84
2022/08/19 00:28:26;;;;;;;6.38;5.70;;;14.80;99.90;;;;;;5023665;28;20338;-84
2022/08/19 00:30:52;;;;;;;9.23;6.93;;;14.80;1.00;;;;;;5026591;28;20072;-84
2022/08/19 00:33:19;;;;;;;3.22;2.80;;;14.70;99.90;;;;;;5006579;28;20372;-84
2022/08/19 00:35:45;;;;;;;5.30;3.92;;;14.60;99.90;;;;;;5003260;28;20053;-83
2022/08/19 00:38:10;;;;;;;5.95;5.07;;;14.70;99.90;;;;;;4985847;28;20045;-84
2022/08/19 00:40:36;;;;;;;4.43;3.45;;;14.60;99.90;;;;;;5006661;28;20035;-84
2022/08/19 00:43:08;;;;;;;5.32;4.68;;;14.60;99.90;;;;;;4991664;28;20358;-83
2022/08/19 00:45:35;;;;;;;7.85;5.75;;;14.50;99.90;;;;;;5029797;28;20051;-83
2022/08/19 00:48:04;;;;;;;4.63;4.07;;;14.50;99.90;;;;;;5031608;28;20034;-83
2022/08/19 00:50:30;;;;;;;328.13;15.07;;;14.40;99.90;;;;;;5022884;28;20049;-84
2022/08/19 00:52:57;;;;;;;312.48;14.60;;;14.30;99.90;;;;;;5006543;28;20128;-84
2022/08/19 00:55:28;;;;;;;10.38;4.07;;;14.30;25.30;;;;;;5004099;28;20100;-83
2022/08/19 00:57:59;;;;;;;400.73;15.88;;;14.20;99.90;;;;;;5016497;28;20125;-84
2022/08/19 01:00:27;;;;;;;321.95;12.07;;;14.30;99.90;;;;;;5024145;28;20034;-84
2022/08/19 01:02:53;;;;;;;35.25;3.83;;;14.20;99.90;;;;;;5004191;28;20050;-84
2022/08/19 01:05:28;;;;;;;57.63;4.72;;;14.20;99.90;;;;;;5027768;28;20051;-83
2022/08/19 01:07:57;;;;;;;3.30;2.97;;;14.10;99.90;;;;;;4999649;28;20362;-86
2022/08/19 01:10:27;;;;;;;5.68;4.60;;;14.20;99.90;;;;;;5007956;28;20407;-87
2022/08/19 01:12:54;;;;;;;6.70;5.30;;;14.20;99.90;;;;;;5017381;28;20041;-86
2022/08/19 01:15:26;;;;;;;7.15;5.43;;;14.20;99.90;;;;;;5028053;28;20103;-87
2022/08/19 01:17:53;;;;;;;9.48;6.85;;;14.20;99.90;;;;;;5010333;28;20041;-87
2022/08/19 01:20:22;;;;;;;8.30;6.00;;;14.20;99.90;;;;;;5008019;28;20042;-87
2022/08/19 01:22:51;;;;;;;7.05;6.07;;;14.20;99.90;;;;;;5023486;28;20049;-85
2022/08/19 01:25:20;;;;;;;7.35;6.53;;;14.20;99.90;;;;;;4990508;28;21512;-87
2022/08/19 01:27:49;;;;;;;10.38;7.03;;;14.20;99.90;;;;;;5016927;28;20037;-86
2022/08/19 01:30:23;;;;;;;8.88;7.32;;;14.10;99.90;;;;;;5011848;28;20494;-88
2022/08/19 01:32:51;;;;;;;9.07;6.97;;;14.20;99.90;;;;;;4990961;28;20107;-87
2022/08/19 01:35:17;;;;;;;10.15;6.32;;;14.20;99.90;;;;;;5011740;28;20450;-87
2022/08/19 01:37:47;;;;;;;9.00;7.22;;;14.10;99.90;;;;;;5011433;28;20034;-86
2022/08/19 01:40:13;;;;;;;11.02;7.45;;;14.10;99.90;;;;;;4988027;28;20313;-87
2022/08/19 01:42:40;;;;;;;7.03;4.70;;;14.10;99.90;;;;;;5030071;28;20041;-87
2022/08/19 01:45:07;;;;;;;4.65;4.03;;;14.10;99.90;;;;;;5009667;28;20038;-86
2022/08/19 01:47:36;;;;;;;7.70;5.55;;;14.00;99.90;;;;;;4993812;28;20042;-86
2022/08/19 01:50:02;;;;;;;8.18;6.10;;;13.90;99.90;;;;;;5014429;28;20500;-87
2022/08/19 01:52:28;;;;;;;7.50;6.55;;;14.00;99.90;;;;;;5005624;28;20101;-85
2022/08/19 01:54:53;;;;;;;9.57;7.10;;;14.00;99.90;;;;;;5022726;28;20444;-86
2022/08/19 01:57:19;;;;;;;9.20;7.93;;;14.10;99.90;;;;;;4991734;28;20496;-87
2022/08/19 01:59:45;;;;;;;9.02;7.57;;;14.10;99.90;;;;;;5002214;28;20481;-87
2022/08/19 02:02:11;;;;;;;5.30;4.68;;;14.10;99.90;;;;;;5010986;28;20069;-87
2022/08/19 02:04:38;;;;;;;9.73;7.90;;;13.90;99.90;;;;;;5011450;28;20133;-87
2022/08/19 02:07:04;;;;;;;8.85;6.60;;;14.00;99.90;;;;;;5010234;28;20409;-86
2022/08/19 02:09:31;;;;;;;9.02;6.80;;;14.00;99.90;;;;;;5005282;28;20236;-88
2022/08/19 02:11:56;;;;;;;8.32;6.15;;;14.00;99.90;;;;;;5005772;28;20100;-88
2022/08/19 02:14:22;;;;;;;7.03;5.70;;;14.00;99.90;;;;;;5006804;28;20084;-87
2022/08/19 02:16:48;;;;;;;11.15;7.32;;;13.90;99.90;;;;;;5030078;28;20080;-87
2022/08/19 02:19:13;;;;;;;8.15;6.07;;;13.90;99.90;;;;;;5026429;28;20231;-87
2022/08/19 02:21:39;;;;;;;8.23;6.72;;;13.90;99.90;;;;;;4992244;28;20149;-86
2022/08/19 02:24:05;;;;;;;8.95;6.80;;;14.00;99.90;;;;;;5011527;28;20111;-87
2022/08/19 02:26:32;;;;;;;9.07;7.22;;;14.00;99.90;;;;;;5004321;28;20076;-86
2022/08/19 02:28:58;;;;;;;14.00;4.25;;;14.00;99.90;;;;;;5000177;28;20104;-87
2022/08/19 02:31:25;;;;;;;7.40;5.93;;;13.90;99.90;;;;;;5004038;28;20077;-87
2022/08/19 02:33:52;;;;;;;10.27;7.28;;;13.90;99.90;;;;;;5028826;28;20152;-87
2022/08/19 02:36:22;;;;;;;10.02;6.70;;;13.90;99.90;;;;;;4999538;28;20076;-86
2022/08/19 02:38:48;;;;;;;7.97;6.15;;;14.00;99.90;;;;;;5005495;28;20401;-87
2022/08/19 02:41:20;;;;;;;7.93;5.53;;;13.80;99.90;;;;;;4991604;28;20038;-87
2022/08/19 02:43:46;;;;;;;11.02;7.57;;;13.90;99.90;;;;;;5028974;28;20037;-87
2022/08/19 02:46:21;;;;;;;9.50;6.45;;;13.90;99.90;;;;;;5016064;28;20045;-88
2022/08/19 02:48:49;;;;;;;8.43;5.80;;;13.80;99.90;;;;;;5006356;28;20760;-86
2022/08/19 02:51:26;;;;;;;12.18;9.25;;;13.80;99.90;;;;;;5025371;28;20482;-86
2022/08/19 02:53:52;;;;;;;12.32;9.05;;;13.90;99.90;;;;;;4986529;28;20049;-88
2022/08/19 02:56:20;;;;;;;13.75;10.10;;;14.00;99.90;;;;;;4990317;28;20045;-86
2022/08/19 02:58:46;;;;;;;13.25;9.93;;;13.90;99.90;;;;;;5012634;28;20041;-88
2022/08/19 03:01:21;;;;;;;13.00;9.20;;;14.00;99.90;;;;;;5009557;28;20051;-86
2022/08/19 03:03:46;;;;;;;10.75;8.20;;;13.90;99.90;;;;;;4989681;28;20058;-87
2022/08/19 03:06:14;;;;;;;12.85;8.70;;;13.80;99.90;;;;;;4989461;28;20051;-87
2022/08/19 03:08:42;;;;;;;192.73;17.95;;;13.90;99.90;;;;;;5006170;28;20037;-87
2022/08/19 03:11:29;;;;;;;20.42;10.35;;;13.90;99.90;;;;;;4992816;28;20120;-85
2022/08/19 03:13:55;;;;;;;12.15;9.05;;;14.00;99.90;;;;;;4988216;28;20059;-86
2022/08/19 03:16:24;;;;;;;19.17;11.60;;;14.00;99.90;;;;;;5014996;28;20050;-85
2022/08/19 03:18:51;;;;;;;17.75;11.50;;;14.00;99.90;;;;;;4996111;28;20103;-87
2022/08/19 03:21:24;;;;;;;12.50;9.82;;;13.90;99.90;;;;;;5003633;28;20038;-87
2022/08/19 03:23:54;;;;;;;12.95;9.68;;;13.90;99.90;;;;;;4986202;28;20061;-87
2022/08/19 03:26:19;;;;;;;16.55;10.80;;;14.00;99.90;;;;;;5004654;28;20091;-85
2022/08/19 03:28:49;;;;;;;25.08;12.38;;;13.90;99.90;;;;;;5007840;28;20394;-87
2022/08/19 03:31:18;;;;;;;13.40;10.25;;;14.00;99.90;;;;;;5021152;28;20411;-86
2022/08/19 03:33:44;;;;;;;13.60;9.48;;;13.90;99.90;;;;;;5003883;28;20546;-87
2022/08/19 03:36:18;;;;;;;11.68;8.15;;;13.90;99.90;;;;;;5008873;28;20048;-86
2022/08/19 03:38:48;;;;;;;10.52;8.25;;;13.90;99.90;;;;;;5018133;28;20532;-86
2022/08/19 03:41:20;;;;;;;15.43;10.18;;;13.90;99.90;;;;;;5025671;28;20084;-86
2022/08/19 03:43:48;;;;;;;12.18;8.45;;;13.80;99.90;;;;;;4986736;28;20069;-87
2022/08/19 03:46:22;;;;;;;13.68;8.65;;;13.80;99.90;;;;;;5027770;28;20159;-86
2022/08/19 03:48:53;;;;;;;12.13;7.73;;;13.70;99.90;;;;;;5007515;28;20065;-87
2022/08/19 03:51:28;;;;;;;10.75;8.38;;;13.80;99.90;;;;;;5008363;28;20293;-86
2022/08/19 03:53:55;;;;;;;10.73;8.30;;;13.70;99.90;;;;;;5006434;28;20033;-88
2022/08/19 03:56:22;;;;;;;10.23;7.15;;;13.70;99.90;;;;;;4996832;28;20040;-86
2022/08/19 03:58:47;;;;;;;253.23;13.77;;;13.70;99.90;;;;;;5002689;28;20045;-86
2022/08/19 04:01:17;;;;;;;16.27;4.85;;;13.60;99.90;;;;;;5039426;28;20103;-87
2022/08/19 04:03:45;;;;;;;11.45;5.70;;;13.70;99.90;;;;;;5009941;28;20049;-86
2022/08/19 04:06:16;;;;;;;9.55;6.50;;;13.60;99.90;;;;;;4989848;28;20484;-86
2022/08/19 04:08:44;;;;;;;9.02;6.47;;;13.60;99.90;;;;;;5026945;28;20048;-86
2022/08/19 04:11:14;;;;;;;7.13;5.60;;;13.70;99.90;;;;;;5025729;28;20124;-85
2022/08/19 04:13:40;;;;;;;11.32;7.22;;;13.60;99.90;;;;;;5010951;28;20058;-86
2022/08/19 04:16:06;;;;;;;17.92;8.23;;;13.60;99.90;;;;;;5008638;28;20052;-86
2022/08/19 04:18:36;;;;;;;13.23;8.07;;;13.60;99.90;;;;;;5029525;28;20355;-87
2022/08/19 04:21:02;;;;;;;9.50;6.97;;;13.60;99.90;;;;;;5011312;28;20042;-87
2022/08/19 04:23:30;;;;;;;14.93;8.07;;;13.70;99.90;;;;;;4983535;28;20040;-86
2022/08/19 04:25:56;;;;;;;9.45;7.50;;;13.70;99.90;;;;;;5008850;28;20037;-87
2022/08/19 04:28:23;;;;;;;13.07;9.35;;;13.70;99.90;;;;;;5027493;28;20408;-86
2022/08/19 04:30:51;;;;;;;12.18;7.90;;;13.70;99.90;;;;;;5006108;28;20052;-86
2022/08/19 04:33:20;;;;;;;11.07;7.95;;;13.60;99.90;;;;;;5031620;28;20037;-85
2022/08/19 04:35:48;;;;;;;12.90;8.93;;;13.70;99.90;;;;;;5004776;28;20141;-86
2022/08/19 04:38:16;;;;;;;13.48;10.05;;;13.70;99.90;;;;;;5032762;28;20083;-86
2022/08/19 04:43:34;;;;;;;13.70;9.90;;;13.90;99.90;;;;;;5005670;28;20045;-86
2022/08/19 04:46:09;;;;;;;15.93;10.82;;;13.90;99.90;;;;;;4995187;28;20038;-86
2022/08/19 04:48:36;;;;;;;10.05;7.50;;;13.90;99.90;;;;;;5014647;28;20493;-87
2022/08/19 04:51:06;;;;;;;14.13;9.80;;;13.80;99.90;;;;;;4987174;28;20038;-86
2022/08/19 04:53:35;;;;;;;46.25;8.82;;;13.80;99.90;;;;;;4990556;28;20037;-86
2022/08/19 04:56:07;;;;;;;26.63;9.68;;;13.70;99.90;;;;;;5005415;28;20037;-87
2022/08/19 04:58:33;;;;;;;10.95;7.95;;;13.70;99.90;;;;;;5023672;28;20045;-86
2022/08/19 05:01:02;;;;;;;12.45;9.48;;;13.80;99.90;;;;;;4995970;28;20507;-88
2022/08/19 05:03:33;;;;;;;13.40;10.48;;;13.90;99.90;;;;;;5035641;28;20140;-87
2022/08/19 05:06:03;;;;;;;11.70;7.75;;;13.90;99.90;;;;;;5007663;28;20557;-87
2022/08/19 05:08:30;;;;;;;15.07;9.70;;;14.00;99.90;;;;;;4996098;28;20468;-87
2022/08/19 05:10:57;;;;;;;12.35;8.88;;;14.10;99.90;;;;;;5032532;28;20044;-87
2022/08/19 05:13:23;;;;;;;16.50;9.93;;;14.10;99.90;;;;;;5003430;28;20108;-87
2022/08/19 05:15:57;;;;;;;12.27;8.35;;;14.20;99.90;;;;;;5018231;28;20052;-86
2022/08/19 05:24:08;;;;;;;17.23;11.55;;;14.50;99.90;;;;;;5030872;28;20568;-87
2022/08/19 05:26:46;;;;;;;14.50;10.43;;;14.50;99.90;;;;;;5010534;28;20030;-86
2022/08/19 05:29:17;;;;;;;18.42;11.55;;;14.70;99.90;;;;;;5010503;28;20037;-87
2022/08/19 05:31:44;;;;;;;17.98;11.55;;;14.80;99.90;;;;;;4991608;28;20041;-87
2022/08/19 05:34:10;;;;;;;18.98;11.85;;;14.90;99.90;;;;;;4994509;28;20049;-87
2022/08/19 05:36:40;;;;;;;21.48;12.82;;;15.00;99.90;;;;;;5009006;28;20441;-85
2022/08/19 05:39:07;;;;;;;19.50;13.38;;;15.10;99.90;;;;;;5004444;28;20049;-87
2022/08/19 05:41:33;;;;;;;20.95;13.38;;;15.40;99.90;;;;;;5008503;28;20034;-86
2022/08/19 05:44:02;;;;;;;20.23;12.68;;;15.40;99.90;;;;;;5012787;28;20083;-85
2022/08/19 05:46:28;;;;;;;17.55;12.65;;;15.50;99.90;;;;;;4992026;28;20413;-86
2022/08/19 05:48:56;;;;;;;19.38;12.00;;;15.60;99.90;;;;;;5012606;28;20040;-85
2022/08/19 05:51:22;;;;;;;17.67;12.30;;;15.70;99.90;;;;;;5006017;28;20037;-85
2022/08/19 05:53:49;;;;;;;19.70;12.68;;;15.90;99.90;;;;;;4990666;28;20386;-86
2022/08/19 05:56:17;;;;;;;15.15;11.55;;;15.80;99.90;;;;;;5013154;28;20072;-87
2022/08/19 05:58:45;;;;;;;16.67;12.88;;;16.00;99.90;;;;;;5007759;28;20030;-85
2022/08/19 06:01:17;;;;;;;17.15;11.88;;;16.10;99.90;;;;;;5026228;28;20061;-86
2022/08/19 06:03:44;;;;;;;18.25;12.27;;;16.10;99.90;;;;;;5007334;28;20060;-87
2022/08/19 06:06:11;;;;;;;18.70;13.00;;;16.20;99.90;;;;;;5009804;28;20396;-86
2022/08/19 06:08:38;;;;;;;15.57;12.43;;;16.40;99.90;;;;;;5014807;28;20045;-86
2022/08/19 06:11:22;;;;;;;20.40;14.27;;;16.60;99.90;;;;;;5005346;28;20328;-85
2022/08/19 06:13:52;;;;;;;21.35;13.80;;;16.80;99.90;;;;;;4989711;28;20040;-86
2022/08/19 06:16:22;;;;;;;19.27;13.90;;;16.90;99.90;;;;;;5013016;28;20120;-86
2022/08/19 06:18:52;;;;;;;21.98;14.60;;;17.10;99.90;;;;;;5013702;28;20048;-86
2022/08/19 06:21:23;;;;;;;22.83;14.55;;;17.10;99.90;;;;;;5043615;28;20041;-85
2022/08/19 06:23:51;;;;;;;20.30;15.00;;;17.20;99.90;;;;;;4992358;28;20345;-86
2022/08/19 06:26:18;;;;;;;22.05;15.98;;;17.30;99.90;;;;;;4991597;28;20030;-87
2022/08/19 06:28:48;;;;;;;18.45;14.23;;;17.60;99.90;;;;;;4988999;28;20034;-86
2022/08/19 06:31:16;;;;;;;17.67;14.02;;;17.70;99.90;;;;;;5038111;28;20044;-85
2022/08/19 06:33:43;;;;;;;22.25;14.65;;;17.80;99.90;;;;;;5015502;28;20121;-85
2022/08/19 06:36:19;;;;;;;18.35;14.18;;;17.70;99.90;;;;;;5034135;28;20038;-86
2022/08/19 06:38:44;;;;;;;21.60;14.60;;;18.00;99.90;;;;;;5001141;28;20053;-86
2022/08/19 06:41:10;;;;;;;18.35;14.35;;;18.10;99.90;;;;;;5011994;28;20452;-87
2022/08/19 06:43:36;;;;;;;18.20;13.20;;;18.20;99.90;;;;;;5009515;28;20082;-86
2022/08/19 06:46:03;;;;;;;16.48;12.82;;;18.30;99.90;;;;;;4994251;28;20400;-86
2022/08/19 06:48:29;;;;;;;16.42;12.57;;;18.20;99.90;;;;;;5005761;28;20107;-87
2022/08/19 06:50:55;;;;;;;16.77;13.40;;;18.30;99.90;;;;;;5003360;28;20105;-86
2022/08/19 06:53:21;;;;;;;16.42;13.02;;;18.50;99.90;;;;;;4981281;28;20046;-86
2022/08/19 06:55:47;;;;;;;16.58;12.35;;;18.60;99.90;;;;;;4985053;28;20045;-86
2022/08/19 06:58:14;;;;;;;17.27;13.43;;;18.70;99.90;;;;;;5000989;28;20121;-86
2022/08/19 07:00:40;;;;;;;16.63;12.77;;;18.80;99.90;;;;;;5026000;28;20137;-86
2022/08/19 07:03:05;;;;;;;14.32;12.25;;;18.70;99.90;;;;;;5005891;28;20513;-86
2022/08/19 07:05:31;;;;;;;15.65;13.20;;;18.80;99.90;;;;;;5023544;28;20042;-86
2022/08/19 07:07:57;;;;;;;15.77;12.25;;;18.90;99.90;;;;;;5027631;28;20049;-85
2022/08/19 07:10:23;;;;;;;17.77;12.00;;;19.00;99.90;;;;;;5014080;28;20051;-85
2022/08/19 07:12:49;;;;;;;13.88;12.15;;;19.20;99.90;;;;;;5022551;28;20033;-86
2022/08/19 07:15:16;;;;;;;20.10;11.27;;;19.10;95.10;;;;;;4986793;28;20207;-86
2022/08/19 07:17:43;;;;;;;15.85;12.35;;;19.20;81.90;;;;;;5009613;28;20508;-86
2022/08/19 07:20:09;;;;;;;15.20;12.30;;;19.40;99.90;;;;;;5004963;28;20036;-85
2022/08/19 07:22:37;;;;;;;17.85;12.82;;;19.50;1.00;;;;;;5022010;28;20111;-86
2022/08/19 07:25:05;;;;;;;16.38;12.43;;;19.70;1.00;;;;;;5001664;28;20034;-86
2022/08/19 07:27:31;;;;;;;16.10;12.13;;;19.60;99.90;;;;;;4989555;28;20053;-86
2022/08/19 07:29:56;;;;;;;16.50;12.27;;;19.90;99.90;;;;;;4987995;28;20121;-85
2022/08/19 07:32:22;;;;;;;15.82;12.15;;;19.90;1.00;;;;;;5004965;28;20289;-86
2022/08/19 07:34:48;;;;;;;15.20;13.35;;;19.80;99.90;;;;;;5017136;28;20512;-86
2022/08/19 07:37:14;;;;;;;13.52;11.77;;;20.00;99.90;;;;;;4991418;28;20056;-86
2022/08/19 07:39:39;;;;;;;15.82;11.43;;;20.00;99.90;;;;;;4991634;28;20669;-86
2022/08/19 07:42:09;;;;;;;15.60;12.25;;;20.20;99.90;;;;;;4990343;28;20033;-85
2022/08/19 07:44:36;;;;;;;18.92;11.93;;;20.40;99.90;;;;;;5007014;28;20091;-86
2022/08/19 07:47:04;;;;;;;14.82;11.15;;;20.40;99.90;;;;;;5004536;28;20033;-87
2022/08/19 07:49:30;;;;;;;13.73;10.93;;;20.60;1.00;;;;;;5024716;28;20060;-85
2022/08/19 07:52:06;;;;;;;15.07;11.27;;;20.60;1.00;;;;;;4989305;28;20338;-84
2022/08/19 07:54:35;;;;;;;13.40;10.48;;;20.70;99.90;;;;;;5010174;28;20045;-86
2022/08/19 07:57:02;;;;;;;12.68;10.65;;;20.70;99.90;;;;;;5005564;28;20038;-85
2022/08/19 07:59:28;;;;;;;12.07;10.45;;;20.80;99.90;;;;;;4990059;28;20041;-83
2022/08/19 08:01:55;;;;;;;15.52;10.50;;;20.80;99.90;;;;;;4992639;28;20064;-86
2022/08/19 08:09:52;;;;;;;12.02;10.73;;;21.30;1.00;;;;;;5017685;28;20057;-85
2022/08/19 08:12:28;;;;;;;12.35;9.73;;;21.30;99.90;;;;;;4991805;28;20473;-86
2022/08/19 08:14:56;;;;;;;12.80;10.02;;;21.30;99.90;;;;;;5010514;28;20056;-86
2022/08/19 08:17:26;;;;;;;11.35;9.98;;;21.40;53.60;;;;;;5036777;28;20049;-84
2022/08/19 08:19:52;;;;;;;13.40;10.15;;;21.50;99.90;;;;;;5014977;28;20049;-86
2022/08/19 08:25:13;;;;;;;10.85;9.75;;;21.80;99.90;;;;;;5011317;28;20045;-86
2022/08/19 08:27:41;;;;;;;11.27;9.00;;;21.90;1.00;;;;;;5012931;28;20042;-85
2022/08/19 08:30:14;;;;;;;10.43;9.15;;;22.00;1.00;;;;;;4994390;28;20026;-85
2022/08/19 08:32:41;;;;;;;11.90;9.43;;;22.10;99.90;;;;;;4992427;28;20060;-85
2022/08/19 08:35:09;;;;;;;13.45;10.07;;;22.20;99.90;;;;;;5028786;28;20128;-85
2022/08/19 08:37:36;;;;;;;12.07;9.93;;;22.30;99.90;;;;;;5007532;28;20040;-86
2022/08/19 08:40:44;;;;;;;13.15;10.10;;;22.40;99.90;;;;;;5010799;28;20044;-86
2022/08/19 08:43:28;;;;;;;11.13;9.10;;;22.60;99.90;;;;;;5035342;28;20136;-85
2022/08/19 08:46:30;;;;;;;8.82;7.93;;;22.60;99.90;;;;;;5008343;28;20551;-87
2022/08/19 08:49:09;;;;;;;9.77;8.30;;;22.70;99.90;;;;;;5009026;28;20054;-87
2022/08/19 08:51:43;;;;;;;8.57;6.22;;;22.80;99.70;;;;;;5005266;28;20561;-85
2022/08/19 08:54:13;;;;;;;7.90;5.85;;;22.90;38.00;;;;;;5006554;28;20052;-85
2022/08/19 08:56:42;;;;;;;6.55;5.78;;;23.10;99.90;;;;;;4984818;28;20477;-85
2022/08/19 08:59:21;;;;;;;7.03;6.32;;;23.00;1.00;;;;;;5027338;28;20045;-85
2022/08/19 09:01:48;;;;;;;7.90;6.22;;;23.00;99.90;;;;;;5010657;28;20033;-86
2022/08/19 09:04:14;;;;;;;9.63;6.88;;;23.20;1.00;;;;;;5021567;28;20369;-86
2022/08/19 09:07:03;;;;;;;9.98;6.90;;;23.20;99.90;;;;;;5007955;28;20038;-85
2022/08/19 09:09:34;;;;;;;8.27;7.03;;;23.20;99.90;;;;;;4992482;28;20041;-85
2022/08/19 09:12:19;;;;;;;12.50;5.70;;;23.40;82.00;;;;;;4992476;28;20041;-85
2022/08/19 09:14:57;;;;;;;7.45;6.68;;;23.60;50.40;;;;;;5006852;28;20042;-86
2022/08/19 09:17:30;;;;;;;11.60;8.52;;;23.80;1.00;;;;;;5019233;28;20049;-86
2022/08/19 09:20:15;;;;;;;8.88;7.47;;;23.70;99.90;;;;;;4992314;28;20476;-85
2022/08/19 09:22:45;;;;;;;8.43;6.55;;;23.90;99.90;;;;;;4994710;28;20460;-85
2022/08/19 09:25:13;;;;;;;8.00;7.20;;;23.90;1.00;;;;;;5006260;28;20515;-85
2022/08/19 09:27:41;;;;;;;8.43;7.55;;;23.90;99.90;;;;;;5029720;28;20457;-85
2022/08/19 09:30:09;;;;;;;8.75;7.82;;;24.20;99.90;;;;;;5028305;28;20070;-85
2022/08/19 09:32:35;;;;;;;9.50;7.88;;;24.00;99.90;;;;;;5004400;28;20409;-84
2022/08/19 09:35:01;;;;;;;10.77;8.75;;;24.10;99.90;;;;;;4994195;28;20112;-85
2022/08/19 09:37:27;;;;;;;10.48;8.55;;;24.10;63.00;;;;;;4999745;28;20452;-85
2022/08/19 09:39:53;;;;;;;9.93;8.93;;;24.00;99.90;;;;;;5018612;28;20045;-85
2022/08/19 09:42:19;;;;;;;8.88;7.43;;;24.20;99.90;;;;;;5012577;28;20050;-86
2022/08/19 09:44:45;;;;;;;9.45;7.75;;;24.20;99.90;;;;;;5012053;28;20038;-85
2022/08/19 09:47:12;;;;;;;10.60;8.07;;;24.50;57.30;;;;;;5019972;28;20049;-85
2022/08/19 09:49:41;;;;;;;10.77;9.63;;;24.70;99.90;;;;;;5041842;28;20382;-85
2022/08/19 09:52:11;;;;;;;15.57;9.75;;;24.70;99.90;;;;;;5030561;28;20046;-85
2022/08/19 09:54:38;;;;;;;11.13;9.88;;;24.70;99.90;;;;;;5013292;28;20083;-85
2022/08/19 09:57:03;;;;;;;12.05;10.25;;;24.80;99.90;;;;;;5009493;28;20378;-85
2022/08/19 09:59:29;;;;;;;8.18;7.38;;;25.00;99.90;;;;;;5001357;28;20041;-85
2022/08/19 10:01:56;;;;;;;11.68;9.20;;;25.20;99.90;;;;;;4998820;28;20117;-86
2022/08/19 10:04:22;;;;;;;10.07;9.07;;;25.10;99.90;;;;;;5019017;28;20050;-85
2022/08/19 10:06:50;;;;;;;13.75;10.50;;;25.30;99.90;;;;;;4994938;28;20080;-86
2022/08/19 10:09:17;;;;;;;10.30;9.30;;;25.10;1.00;;;;;;5019123;28;20503;-86
2022/08/19 10:11:47;;;;;;;12.68;10.27;;;25.30;99.90;;;;;;5009796;28;20209;-85
2022/08/19 10:14:14;;;;;;;11.38;10.10;;;25.20;1.00;;;;;;5027189;28;20559;-86
2022/08/19 10:16:41;;;;;;;10.27;8.13;;;25.20;1.00;;;;;;5037448;28;20077;-85
2022/08/19 10:19:07;;;;;;;8.85;7.95;;;25.50;99.90;;;;;;5022736;28;20046;-86
2022/08/19 10:21:34;;;;;;;10.57;8.57;;;25.70;99.90;;;;;;5034118;28;20338;-86
2022/08/19 10:24:03;;;;;;;11.40;9.98;;;25.80;99.90;;;;;;5019571;28;20496;-85
2022/08/19 10:26:36;;;;;;;9.70;8.57;;;25.40;99.90;;;;;;5026984;28;20041;-86
2022/08/19 10:29:04;;;;;;;10.30;8.52;;;25.60;1.00;;;;;;5009506;28;20455;-86
2022/08/19 10:31:32;;;;;;;9.48;8.48;;;25.80;99.90;;;;;;5013184;28;20052;-86
2022/08/19 10:33:59;;;;;;;8.68;7.78;;;25.60;99.90;;;;;;5006477;28;20057;-86
2022/08/19 10:36:32;;;;;;;9.80;8.80;;;25.60;99.90;;;;;;4986778;28;20057;-86
2022/08/19 10:39:04;;;;;;;9.55;8.55;;;25.80;99.90;;;;;;5034603;28;20049;-86
2022/08/19 10:41:36;;;;;;;9.63;8.60;;;25.60;99.90;;;;;;4993433;28;20045;-86
2022/08/19 10:44:05;;;;;;;9.45;7.63;;;26.00;99.90;;;;;;4992403;28;20064;-85
2022/08/19 10:46:32;;;;;;;9.38;8.32;;;26.40;99.90;;;;;;5041019;28;20290;-85
2022/08/19 10:49:01;;;;;;;10.63;9.35;;;26.20;86.70;;;;;;5011784;28;20494;-85
2022/08/19 10:54:18;;;;;;;10.10;7.65;;;26.70;99.90;;;;;;5012723;28;20042;-86
2022/08/19 10:56:53;;;;;;;12.95;8.60;;;26.20;1.00;;;;;;4992174;28;20056;-86
2022/08/19 10:59:21;;;;;;;;;;;26.20;1.00;;;;;;5000423;28;20086;-85
2022/08/19 11:01:47;;;;;;;11.80;8.55;;;25.90;10.90;;;;;;5039247;28;19984;-85
2022/08/19 11:04:13;;;;;;;9.05;8.07;;;26.00;99.90;;;;;;4997920;28;20389;-85
2022/08/19 11:06:43;;;;;;;13.45;12.02;;;26.40;99.90;;;;;;5003020;28;20034;-85
2022/08/19 11:09:10;;;;;;;12.48;10.88;;;25.80;99.70;;;;;;5028166;28;20037;-84
2022/08/19 11:11:40;;;;;;;12.45;10.30;;;25.40;99.90;;;;;;5033487;28;20120;-85
2022/08/19 11:14:10;;;;;;;12.27;10.32;;;25.60;99.90;;;;;;5004066;28;20485;-85
2022/08/19 11:16:38;;;;;;;12.20;10.90;;;25.90;99.90;;;;;;4979287;28;20050;-85
2022/08/19 11:19:04;;;;;;;22.27;12.43;;;26.50;99.90;;;;;;5021877;28;20045;-85
2022/08/19 11:21:32;;;;;;;13.77;11.32;;;26.60;13.20;;;;;;5003765;28;20044;-85
2022/08/19 11:24:05;;;;;;;13.32;11.40;;;26.10;22.20;;;;;;5012209;28;20057;-85
2022/08/19 11:26:32;;;;;;;15.02;12.93;;;26.00;46.70;;;;;;4995667;28;20041;-85
2022/08/19 11:28:59;;;;;;;13.05;11.65;;;25.40;99.90;;;;;;4995117;28;20213;-85
2022/08/19 11:31:30;;;;;;;14.07;12.57;;;25.70;99.90;;;;;;4992073;28;20072;-84
2022/08/19 11:33:57;;;;;;;14.00;12.70;;;26.30;47.40;;;;;;5038898;28;20042;-85
2022/08/19 11:36:22;;;;;;;13.30;11.77;;;26.80;99.90;;;;;;5013100;28;20100;-85
2022/08/19 11:38:49;;;;;;;13.48;12.20;;;27.50;88.60;;;;;;5016445;28;20041;-85
2022/08/19 11:41:17;;;;;;;14.00;12.48;;;27.70;1.00;;;;;;5045492;28;20076;-84
2022/08/19 11:43:43;;;;;;;14.48;11.77;;;27.40;1.00;;;;;;5017139;28;20037;-85
2022/08/19 11:46:11;;;;;;;13.15;10.57;;;27.70;1.00;;;;;;5007988;28;20748;-85
2022/08/19 11:48:38;;;;;;;11.52;10.20;;;28.00;99.90;;;;;;5043517;28;20137;-85
2022/08/19 11:51:07;;;;;;;12.07;10.82;;;27.80;1.00;;;;;;4992961;28;20041;-85
2022/08/19 11:53:34;;;;;;;11.13;10.02;;;27.40;1.00;;;;;;5019159;28;20042;-85
2022/08/19 11:56:00;;;;;;;13.80;11.73;;;27.70;1.00;;;;;;5026666;28;20442;-85
2022/08/19 11:58:25;;;;;;;11.55;10.45;;;27.30;99.90;;;;;;5010664;28;20049;-84
2022/08/19 12:00:52;;;;;;;13.35;12.05;;;27.20;1.00;;;;;;5031559;28;20065;-86
2022/08/19 12:03:19;;;;;;;11.57;10.05;;;27.10;99.90;;;;;;5007091;28;20058;-84
2022/08/19 12:05:45;;;;;;;11.45;10.45;;;26.80;1.00;;;;;;5031298;28;20041;-85
2022/08/19 12:08:12;;;;;;;12.70;11.27;;;26.70;99.90;;;;;;4996995;28;20043;-84
2022/08/19 12:10:39;;;;;;;11.35;10.02;;;26.70;1.00;;;;;;4991607;28;20079;-84
2022/08/19 12:13:06;;;;;;;9.30;8.40;;;26.90;99.90;;;;;;4992954;28;20042;-84
2022/08/19 12:15:40;;;;;;;10.15;8.73;;;27.20;99.90;;;;;;5026072;28;20085;-85
2022/08/19 12:18:07;;;;;;;9.93;8.93;;;27.30;1.00;;;;;;5029245;28;20045;-85
2022/08/19 12:20:39;;;;;;;10.00;8.93;;;27.10;10.50;;;;;;4994006;28;20533;-84
2022/08/19 12:23:06;;;;;;;10.02;9.02;;;27.20;1.00;;;;;;5013768;28;20048;-85
2022/08/19 12:25:32;;;;;;;9.77;8.77;;;27.20;1.00;;;;;;5005831;28;20061;-85
2022/08/19 12:27:58;;;;;;;11.27;9.88;;;27.10;1.00;;;;;;5013611;28;20038;-85
2022/08/19 12:30:24;;;;;;;10.57;9.40;;;27.30;1.00;;;;;;5037492;28;20044;-85
2022/08/19 12:32:51;;;;;;;11.80;9.68;;;27.30;99.90;;;;;;5031702;28;20108;-85
2022/08/19 12:35:19;;;;;;;10.13;9.13;;;27.40;99.90;;;;;;4992850;28;20437;-85
2022/08/19 12:37:46;;;;;;;10.32;8.40;;;27.40;1.00;;;;;;5032452;28;20230;-85
2022/08/19 12:40:13;;;;;;;8.55;7.65;;;27.60;1.00;;;;;;5013007;28;20631;-85
2022/08/19 12:42:45;;;;;;;8.05;7.25;;;27.80;1.00;;;;;;5009862;28;20064;-83
2022/08/19 12:45:13;;;;;;;7.00;6.30;;;27.70;99.90;;;;;;5009114;28;20922;-84
2022/08/19 12:47:39;;;;;;;6.78;5.97;;;28.20;99.90;;;;;;5000680;28;20359;-85
2022/08/19 12:50:08;;;;;;;8.00;6.72;;;28.70;99.90;;;;;;5007600;28;20095;-85
2022/08/19 12:52:42;;;;;;;7.63;6.25;;;28.90;99.90;;;;;;5040644;28;20037;-85
2022/08/19 12:55:08;;;;;;;7.53;5.45;;;28.50;99.90;;;;;;5002586;28;20151;-84
2022/08/19 12:57:35;;;;;;;6.75;5.30;;;28.70;99.90;;;;;;5000201;28;20592;-85
2022/08/19 13:00:10;;;;;;;10.05;6.55;;;28.80;99.90;;;;;;5027378;28;20250;-85
2022/08/19 13:02:37;;;;;;;7.38;6.55;;;28.50;99.90;;;;;;5030165;28;20485;-84
2022/08/19 13:05:04;;;;;;;10.15;6.55;;;28.40;99.90;;;;;;5016769;28;20567;-85